Time;durP1;ratioP1;P1;durP2;ratioP2;P2;SDS_P1;SDS_P2;PMS_P1;PMS_P2;Temp;Humidity;BMP_temperature;BMP_pressure;BME280_temperature;BME280_humidity;BME280_pressure;Samples;Min_cycle;Max_cycle;Signal;HPM_P1;HPM_P2
2022/09/30 00:00:16;;;;;;;15.00;12.43;;;13.60;99.90;;;;;;1038717;28;20166;-70
2022/09/30 00:00:47;;;;;;;15.13;12.40;;;13.60;99.90;;;;;;1037964;28;20041;-69
2022/09/30 00:01:18;;;;;;;13.93;12.10;;;13.60;99.90;;;;;;1034544;28;20021;-72
2022/09/30 00:01:52;;;;;;;13.70;12.23;;;13.60;99.90;;;;;;1035270;28;20191;-70
2022/09/30 00:02:22;;;;;;;14.73;12.38;;;13.60;99.90;;;;;;1034527;28;20044;-71
2022/09/30 00:02:53;;;;;;;12.70;11.40;;;13.60;99.90;;;;;;1035282;28;20093;-70
2022/09/30 00:03:24;;;;;;;15.23;12.03;;;13.50;99.90;;;;;;1034620;28;20108;-71
2022/09/30 00:03:56;;;;;;;16.50;12.60;;;13.60;99.90;;;;;;1034568;28;20030;-70
2022/09/30 00:04:26;;;;;;;14.50;12.75;;;13.50;99.90;;;;;;1031066;28;20113;-71
2022/09/30 00:04:57;;;;;;;13.83;12.00;;;13.50;99.90;;;;;;1030698;28;20034;-71
2022/09/30 00:05:28;;;;;;;13.17;11.30;;;13.50;99.90;;;;;;1030828;28;20117;-69
2022/09/30 00:06:00;;;;;;;13.17;11.77;;;13.50;99.90;;;;;;1032855;28;20049;-70
2022/09/30 00:06:35;;;;;;;12.75;11.27;;;13.50;99.90;;;;;;1034300;28;20018;-69
2022/09/30 00:07:06;;;;;;;14.05;11.27;;;13.50;99.90;;;;;;1034623;28;20017;-70
2022/09/30 00:07:36;;;;;;;13.27;11.87;;;13.50;99.90;;;;;;1033028;28;20033;-69
2022/09/30 00:08:07;;;;;;;14.43;12.07;;;13.50;99.90;;;;;;1030701;28;20525;-69
2022/09/30 00:08:38;;;;;;;13.83;11.53;;;13.50;99.90;;;;;;1030202;28;20127;-69
2022/09/30 00:09:11;;;;;;;12.30;10.95;;;13.60;99.90;;;;;;1031121;28;20018;-69
2022/09/30 00:09:42;;;;;;;13.70;11.45;;;13.60;99.90;;;;;;1034969;28;20022;-69
2022/09/30 00:10:13;;;;;;;13.53;12.00;;;13.60;99.90;;;;;;1034636;28;20057;-69
2022/09/30 00:10:44;;;;;;;13.38;11.10;;;13.60;99.90;;;;;;1038463;28;20120;-69
2022/09/30 00:11:18;;;;;;;13.87;11.30;;;13.60;99.90;;;;;;1034253;28;20022;-69
2022/09/30 00:11:49;;;;;;;13.48;11.30;;;13.60;99.90;;;;;;1038306;28;20701;-69
2022/09/30 00:12:20;;;;;;;11.10;9.90;;;13.60;99.90;;;;;;1038381;28;20024;-69
2022/09/30 00:12:51;;;;;;;12.40;10.50;;;13.60;99.90;;;;;;1034625;28;20033;-71
2022/09/30 00:13:22;;;;;;;12.57;10.93;;;13.60;99.90;;;;;;1034942;28;20322;-69
2022/09/30 00:13:54;;;;;;;11.83;10.50;;;13.60;99.90;;;;;;1038331;28;20503;-69
2022/09/30 00:14:25;;;;;;;12.07;10.18;;;13.60;99.90;;;;;;1034116;28;20014;-69
2022/09/30 00:14:55;;;;;;;12.57;10.60;;;13.60;99.90;;;;;;1034829;28;20025;-69
2022/09/30 00:15:27;;;;;;;12.63;10.30;;;13.60;99.90;;;;;;1035561;28;20105;-69
2022/09/30 00:15:58;;;;;;;11.30;10.02;;;13.60;99.90;;;;;;1033908;28;20022;-70
2022/09/30 00:16:32;;;;;;;13.00;10.55;;;13.60;99.90;;;;;;1034499;28;20026;-69
2022/09/30 00:17:03;;;;;;;13.10;10.25;;;13.60;99.90;;;;;;1034439;28;20018;-69
2022/09/30 00:17:34;;;;;;;13.07;11.13;;;13.60;99.90;;;;;;1034872;28;20025;-69
2022/09/30 00:18:04;;;;;;;11.93;10.43;;;13.60;99.90;;;;;;1034075;28;20469;-70
2022/09/30 00:18:36;;;;;;;10.73;9.13;;;13.60;99.90;;;;;;1034827;28;20026;-70
2022/09/30 00:19:06;;;;;;;11.57;10.15;;;13.60;99.90;;;;;;1034199;28;20085;-69
2022/09/30 00:19:37;;;;;;;12.83;10.43;;;13.60;99.90;;;;;;1034123;28;20060;-70
2022/09/30 00:20:09;;;;;;;12.23;9.80;;;13.60;99.90;;;;;;1034798;28;20029;-69
2022/09/30 00:20:40;;;;;;;12.82;9.68;;;13.60;99.90;;;;;;1034010;28;20021;-70
2022/09/30 00:21:11;;;;;;;12.20;9.33;;;13.60;99.90;;;;;;1034548;28;20096;-69
2022/09/30 00:21:42;;;;;;;9.90;8.88;;;13.50;99.90;;;;;;1034473;28;20013;-69
2022/09/30 00:22:13;;;;;;;12.27;9.52;;;13.50;99.90;;;;;;1034206;28;20010;-70
2022/09/30 00:22:44;;;;;;;10.30;9.10;;;13.50;99.90;;;;;;1034506;28;20386;-69
2022/09/30 00:23:15;;;;;;;12.40;9.40;;;13.50;99.90;;;;;;1034196;28;20014;-70
2022/09/30 00:23:45;;;;;;;10.70;9.33;;;13.50;99.90;;;;;;1034687;28;20014;-70
2022/09/30 00:24:18;;;;;;;10.53;9.07;;;13.50;99.90;;;;;;1038429;28;20075;-70
2022/09/30 00:24:49;;;;;;;11.07;9.00;;;13.50;99.90;;;;;;1038263;28;20309;-70
2022/09/30 00:25:20;;;;;;;10.70;9.18;;;13.50;99.90;;;;;;1034496;28;20048;-69
2022/09/30 00:25:57;;;;;;;12.87;8.87;;;13.50;99.90;;;;;;1034181;28;20024;-70
2022/09/30 00:26:28;;;;;;;9.45;8.38;;;13.50;99.90;;;;;;1038048;28;20409;-69
2022/09/30 00:26:59;;;;;;;10.60;8.95;;;13.50;99.90;;;;;;1037248;28;20414;-69
2022/09/30 00:27:29;;;;;;;10.83;9.03;;;13.50;99.90;;;;;;1034552;28;20014;-70
2022/09/30 00:28:00;;;;;;;8.77;7.87;;;13.50;99.90;;;;;;1037068;28;20681;-70
2022/09/30 00:28:31;;;;;;;10.30;9.23;;;13.50;99.90;;;;;;1038194;28;20150;-71
2022/09/30 00:29:03;;;;;;;9.83;8.43;;;13.50;99.90;;;;;;1038855;28;20256;-69
2022/09/30 00:29:33;;;;;;;11.63;8.70;;;13.50;99.90;;;;;;1037096;28;20248;-70
2022/09/30 00:30:04;;;;;;;9.60;8.17;;;13.50;99.90;;;;;;1034199;28;20021;-70
2022/09/30 00:30:35;;;;;;;9.70;8.45;;;13.50;99.90;;;;;;1034509;28;20018;-70
2022/09/30 00:31:09;;;;;;;8.93;7.93;;;13.40;99.90;;;;;;1034180;28;20014;-70
2022/09/30 00:31:40;;;;;;;11.25;8.85;;;13.40;99.90;;;;;;1034491;28;20021;-70
2022/09/30 00:32:11;;;;;;;8.98;8.07;;;13.40;99.90;;;;;;1034111;28;20018;-70
2022/09/30 00:32:42;;;;;;;9.63;7.90;;;13.40;99.90;;;;;;1034078;28;20018;-70
2022/09/30 00:33:12;;;;;;;8.97;7.73;;;13.40;99.90;;;;;;1034636;28;20022;-69
2022/09/30 00:33:43;;;;;;;10.90;8.70;;;13.40;99.90;;;;;;1034070;28;20636;-69
2022/09/30 00:34:14;;;;;;;11.57;8.30;;;13.40;99.90;;;;;;1034829;28;20017;-69
2022/09/30 00:34:44;;;;;;;8.30;7.17;;;13.40;99.90;;;;;;1034266;28;20579;-68
2022/09/30 00:35:15;;;;;;;10.80;7.93;;;13.40;99.90;;;;;;1034388;28;20021;-69
2022/09/30 00:35:45;;;;;;;8.83;7.93;;;13.40;99.90;;;;;;1034830;28;20441;-69
2022/09/30 00:36:16;;;;;;;9.83;8.13;;;13.40;99.90;;;;;;1034338;28;20014;-69
2022/09/30 00:36:47;;;;;;;8.70;7.50;;;13.40;99.90;;;;;;1033717;28;20104;-70
2022/09/30 00:37:17;;;;;;;10.43;8.63;;;13.40;99.90;;;;;;1033978;28;20049;-70
2022/09/30 00:37:48;;;;;;;9.37;7.50;;;13.40;99.90;;;;;;1034634;28;20017;-71
2022/09/30 00:38:18;;;;;;;9.60;7.77;;;13.40;99.90;;;;;;1038884;28;20013;-69
2022/09/30 00:38:49;;;;;;;8.37;7.33;;;13.40;99.90;;;;;;1035007;28;20014;-70
2022/09/30 00:39:25;;;;;;;8.17;7.27;;;13.30;99.90;;;;;;1030195;28;20025;-69
2022/09/30 00:39:57;;;;;;;10.32;7.45;;;13.30;99.90;;;;;;1032903;28;20093;-69
2022/09/30 00:40:29;;;;;;;7.90;7.05;;;13.30;99.90;;;;;;1031214;28;20046;-70
2022/09/30 00:41:01;;;;;;;9.82;8.20;;;13.30;99.90;;;;;;1034605;28;20104;-70
2022/09/30 00:41:31;;;;;;;8.13;7.20;;;13.30;99.90;;;;;;1035621;28;20022;-70
2022/09/30 00:42:05;;;;;;;9.63;7.70;;;13.30;99.90;;;;;;1037034;28;20102;-71
2022/09/30 00:42:40;;;;;;;10.43;8.23;;;13.30;99.90;;;;;;1038591;28;20264;-70
2022/09/30 00:43:20;;;;;;;10.68;8.05;;;13.30;99.90;;;;;;1035341;28;20030;-70
2022/09/30 00:43:52;;;;;;;9.23;7.35;;;13.30;99.90;;;;;;1036899;28;20170;-69
2022/09/30 00:44:46;;;;;;;7.43;6.65;;;13.30;99.90;;;;;;1034212;28;20098;-70
2022/09/30 00:45:17;;;;;;;7.80;7.00;;;13.30;99.90;;;;;;1034717;28;20048;-70
2022/09/30 00:45:56;;;;;;;9.32;7.28;;;13.30;99.90;;;;;;1038314;28;20428;-70
2022/09/30 00:46:34;;;;;;;9.63;7.38;;;13.30;99.90;;;;;;1038220;28;20092;-69
2022/09/30 00:47:30;;;;;;;9.15;6.95;;;13.30;99.90;;;;;;1037202;28;20014;-70
2022/09/30 00:48:14;;;;;;;8.82;7.22;;;13.30;99.90;;;;;;1030067;28;20034;-70
2022/09/30 00:48:52;;;;;;;6.97;5.78;;;13.30;99.90;;;;;;1031233;28;20397;-70
2022/09/30 00:49:24;;;;;;;7.66;6.66;;;13.30;99.90;;;;;;1034513;28;20029;-70
2022/09/30 00:50:17;;;;;;;8.88;7.05;;;13.30;99.90;;;;;;1035103;28;20469;-70
2022/09/30 00:50:54;;;;;;;8.18;6.88;;;13.30;99.90;;;;;;1033782;28;20489;-70
2022/09/30 00:51:35;;;;;;;7.68;6.18;;;13.30;99.90;;;;;;1034598;28;20132;-69
2022/09/30 00:52:05;;;;;;;6.65;5.95;;;13.30;99.90;;;;;;1030201;28;20101;-70
2022/09/30 00:52:37;;;;;;;8.20;6.37;;;13.30;99.90;;;;;;1033137;28;20070;-69
2022/09/30 00:53:49;;;;;;;7.97;6.43;;;13.30;99.90;;;;;;1034561;28;20386;-69
2022/09/30 00:54:28;;;;;;;8.05;5.90;;;13.40;99.90;;;;;;1030256;28;20113;-71
2022/09/30 00:54:59;;;;;;;;;;;13.40;99.90;;;;;;1026343;28;20964;-71
2022/09/30 00:55:39;;;;;;;8.68;5.95;;;13.40;99.90;;;;;;1026496;28;19910;-70
2022/09/30 00:56:20;;;;;;;7.15;5.85;;;13.40;99.90;;;;;;1026087;28;20110;-72
2022/09/30 00:56:57;;;;;;;6.65;5.90;;;13.40;99.90;;;;;;1029113;28;20393;-71
2022/09/30 00:57:28;;;;;;;9.88;6.45;;;13.30;99.90;;;;;;1029795;28;20594;-69
2022/09/30 00:58:01;;;;;;;6.10;5.45;;;13.40;99.90;;;;;;1030605;28;20100;-70
2022/09/30 00:58:46;;;;;;;8.43;6.18;;;13.30;99.90;;;;;;1030085;28;20149;-69
2022/09/30 00:59:38;;;;;;;6.97;5.72;;;13.30;99.90;;;;;;1028027;28;20330;-72
2022/09/30 01:00:09;;;;;;;6.63;5.60;;;13.30;99.90;;;;;;1025164;28;20112;-69
2022/09/30 01:00:40;;;;;;;5.67;4.83;;;13.30;99.90;;;;;;1031426;28;20157;-70
2022/09/30 01:01:10;;;;;;;7.83;5.70;;;13.30;99.90;;;;;;1034106;28;20128;-71
2022/09/30 01:01:42;;;;;;;6.33;5.10;;;13.30;99.90;;;;;;1034650;28;20272;-71
2022/09/30 01:02:13;;;;;;;6.65;5.18;;;13.30;99.90;;;;;;1035340;28;20390;-71
2022/09/30 01:02:46;;;;;;;7.35;5.78;;;13.30;99.90;;;;;;1037798;28;20132;-69
2022/09/30 01:03:18;;;;;;;7.45;5.90;;;13.30;99.90;;;;;;1034544;28;20014;-70
2022/09/30 01:03:59;;;;;;;6.20;5.03;;;13.30;99.90;;;;;;1034163;28;20109;-69
2022/09/30 01:04:31;;;;;;;7.70;5.72;;;13.30;99.90;;;;;;1030519;28;20423;-69
2022/09/30 01:05:02;;;;;;;6.53;5.00;;;13.20;99.90;;;;;;1030138;28;20754;-70
2022/09/30 01:05:33;;;;;;;7.30;5.60;;;13.30;99.90;;;;;;1032633;28;20991;-70
2022/09/30 01:06:04;;;;;;;6.78;5.35;;;13.30;99.90;;;;;;1034641;28;20462;-70
2022/09/30 01:06:36;;;;;;;6.00;4.88;;;13.20;99.90;;;;;;1034199;28;20025;-70
2022/09/30 01:07:08;;;;;;;6.70;4.90;;;13.20;99.90;;;;;;1034559;28;20030;-69
2022/09/30 01:07:38;;;;;;;5.95;4.93;;;13.20;99.90;;;;;;1033869;28;20113;-69
2022/09/30 01:08:10;;;;;;;7.60;5.63;;;13.20;99.90;;;;;;1034392;28;20018;-71
2022/09/30 01:08:41;;;;;;;6.90;5.32;;;13.20;99.90;;;;;;1034898;28;20022;-70
2022/09/30 01:09:12;;;;;;;6.93;5.50;;;13.20;99.90;;;;;;1034711;28;20010;-70
2022/09/30 01:09:43;;;;;;;6.33;4.87;;;13.20;99.90;;;;;;1038279;28;20026;-69
2022/09/30 01:10:14;;;;;;;5.65;4.80;;;13.20;99.90;;;;;;1030631;28;20257;-69
2022/09/30 01:10:45;;;;;;;5.80;5.20;;;13.20;99.90;;;;;;1030337;28;20018;-70
2022/09/30 01:11:16;;;;;;;5.93;4.83;;;13.20;99.90;;;;;;1034848;28;20029;-69
2022/09/30 01:11:47;;;;;;;5.85;4.95;;;13.20;99.90;;;;;;1034145;28;20253;-69
2022/09/30 01:12:22;;;;;;;5.82;4.75;;;13.20;99.90;;;;;;1034480;28;20109;-69
2022/09/30 01:12:53;;;;;;;8.35;4.88;;;13.20;99.90;;;;;;1034002;28;20018;-69
2022/09/30 01:13:26;;;;;;;5.28;4.68;;;13.20;99.90;;;;;;1030584;28;20018;-70
2022/09/30 01:14:01;;;;;;;5.35;4.78;;;13.10;99.90;;;;;;1034681;28;20021;-69
2022/09/30 01:14:33;;;;;;;5.50;4.80;;;13.20;99.90;;;;;;1034331;28;20018;-71
2022/09/30 01:15:05;;;;;;;5.78;4.20;;;13.20;99.90;;;;;;1034671;28;20077;-69
2022/09/30 01:16:05;;;;;;;6.18;4.97;;;13.20;99.90;;;;;;1036810;28;20026;-71
2022/09/30 01:16:55;;;;;;;5.57;4.82;;;13.20;99.90;;;;;;1034540;28;20076;-70
2022/09/30 01:17:51;;;;;;;5.50;4.32;;;13.20;99.90;;;;;;1037229;28;20037;-70
2022/09/30 01:18:44;;;;;;;6.78;4.85;;;13.20;99.90;;;;;;1030351;28;20025;-69
2022/09/30 01:19:15;;;;;;;5.05;4.30;;;13.10;99.90;;;;;;1030235;28;20010;-70
2022/09/30 01:20:12;;;;;;;5.20;4.33;;;13.10;99.90;;;;;;1034278;28;20030;-70
2022/09/30 01:21:10;;;;;;;5.30;4.80;;;13.10;99.90;;;;;;1034761;28;20029;-69
2022/09/30 01:21:58;;;;;;;5.05;4.38;;;13.10;99.90;;;;;;1034445;28;20061;-70
2022/09/30 01:22:46;;;;;;;;;;;13.10;99.90;;;;;;1034802;28;20018;-70
2022/09/30 01:23:25;;;;;;;6.03;4.72;;;13.10;99.90;;;;;;1034371;28;19916;-70
2022/09/30 01:24:24;;;;;;;5.55;4.95;;;13.10;99.90;;;;;;1034855;28;20504;-72
2022/09/30 01:25:04;;;;;;;6.65;4.70;;;13.10;99.90;;;;;;1030568;28;20006;-69
2022/09/30 01:25:55;;;;;;;5.55;4.47;;;13.10;99.90;;;;;;1031150;28;20098;-69
2022/09/30 01:26:55;;;;;;;6.13;4.57;;;13.10;99.90;;;;;;1036914;28;20025;-69
2022/09/30 01:27:50;;;;;;;4.30;3.78;;;13.10;99.90;;;;;;1034171;28;20010;-69
2022/09/30 01:29:04;;;;;;;5.13;4.28;;;13.20;99.90;;;;;;1031241;28;20022;-69
2022/09/30 01:30:01;;;;;;;5.72;4.90;;;13.20;99.90;;;;;;1034748;28;20028;-70
2022/09/30 01:31:05;;;;;;;5.28;4.78;;;13.20;99.90;;;;;;1034679;28;20033;-69
2022/09/30 01:32:08;;;;;;;4.80;4.30;;;13.20;99.90;;;;;;1038152;28;20087;-71
2022/09/30 01:32:53;;;;;;;5.70;4.32;;;13.20;99.90;;;;;;1034278;28;20022;-70
2022/09/30 01:33:41;;;;;;;4.97;4.45;;;13.20;99.90;;;;;;1030840;28;20030;-72
2022/09/30 01:34:19;;;;;;;5.55;4.13;;;13.20;99.90;;;;;;1030447;28;20723;-69
2022/09/30 01:34:54;;;;;;;6.43;4.13;;;13.20;99.90;;;;;;1036851;28;20030;-71
2022/09/30 01:35:34;;;;;;;4.97;4.47;;;13.20;99.90;;;;;;1038424;28;20017;-72
2022/09/30 01:36:27;;;;;;;4.80;4.20;;;13.20;99.90;;;;;;1034685;28;20084;-70
2022/09/30 01:37:17;;;;;;;4.80;3.97;;;13.20;99.90;;;;;;1034300;28;20113;-72
2022/09/30 01:38:10;;;;;;;6.38;4.88;;;13.20;99.90;;;;;;1034489;28;20010;-72
2022/09/30 01:38:43;;;;;;;5.43;4.15;;;13.20;99.90;;;;;;1031179;28;20080;-68
2022/09/30 01:39:35;;;;;;;5.75;3.67;;;13.20;99.90;;;;;;1034103;28;20044;-69
2022/09/30 01:40:21;;;;;;;5.57;4.45;;;13.20;99.90;;;;;;1033992;28;20472;-70
2022/09/30 01:40:55;;;;;;;5.18;4.47;;;13.20;99.90;;;;;;1034438;28;20065;-70
2022/09/30 01:41:53;;;;;;;5.93;4.30;;;13.20;99.90;;;;;;1034401;28;20072;-70
2022/09/30 01:42:45;;;;;;;5.47;4.57;;;13.20;99.90;;;;;;1034937;28;20018;-70
2022/09/30 01:43:31;;;;;;;5.80;4.00;;;13.20;99.90;;;;;;1034708;28;20054;-70
2022/09/30 01:44:19;;;;;;;5.82;4.65;;;13.20;99.90;;;;;;1038296;28;20028;-70
2022/09/30 01:44:54;;;;;;;5.40;4.88;;;13.20;99.90;;;;;;1038474;28;20021;-69
2022/09/30 01:45:31;;;;;;;4.60;3.90;;;13.20;99.90;;;;;;1038368;28;20394;-70
2022/09/30 01:46:32;;;;;;;4.78;3.92;;;13.20;99.90;;;;;;1035052;28;20388;-70
2022/09/30 01:47:25;;;;;;;4.78;4.18;;;13.10;99.90;;;;;;1034611;28;20105;-70
2022/09/30 01:48:29;;;;;;;6.05;4.47;;;13.10;99.90;;;;;;1030990;28;20022;-70
2022/09/30 01:49:16;;;;;;;5.85;4.68;;;13.10;99.90;;;;;;1037463;28;20629;-70
2022/09/30 01:50:01;;;;;;;6.28;4.30;;;13.10;99.90;;;;;;1038346;28;20022;-70
2022/09/30 01:50:49;;;;;;;4.95;4.13;;;13.00;99.90;;;;;;1034343;28;20014;-70
2022/09/30 01:51:44;;;;;;;5.03;3.78;;;13.00;99.90;;;;;;1034416;28;20014;-71
2022/09/30 01:52:31;;;;;;;5.07;4.38;;;13.00;99.90;;;;;;1035608;28;20458;-71
2022/09/30 01:53:10;;;;;;;5.82;3.80;;;13.00;99.90;;;;;;1034696;28;20073;-71
2022/09/30 01:54:02;;;;;;;5.15;4.22;;;13.00;99.90;;;;;;1033943;28;20026;-70
2022/09/30 01:55:02;;;;;;;4.70;4.30;;;13.00;99.90;;;;;;1034494;28;20128;-72
2022/09/30 01:55:44;;;;;;;5.72;4.47;;;13.00;99.90;;;;;;1031705;28;20019;-71
2022/09/30 01:56:27;;;;;;;5.97;4.53;;;13.00;99.90;;;;;;1034398;28;20006;-70
2022/09/30 01:57:17;;;;;;;4.63;3.97;;;13.00;99.90;;;;;;1030507;28;20602;-71
2022/09/30 01:58:16;;;;;;;5.22;4.68;;;13.00;99.90;;;;;;1031010;28;20026;-70
2022/09/30 01:58:50;;;;;;;4.28;3.55;;;12.90;99.90;;;;;;1031395;28;20041;-70
2022/09/30 01:59:33;;;;;;;5.32;4.35;;;12.90;99.90;;;;;;1035131;28;20513;-69
2022/09/30 02:00:07;;;;;;;5.32;4.30;;;12.90;99.90;;;;;;1035080;28;20021;-70
2022/09/30 02:00:41;;;;;;;4.50;4.05;;;12.90;99.90;;;;;;1035777;28;20561;-70
2022/09/30 02:01:22;;;;;;;5.47;4.38;;;12.90;99.90;;;;;;1036791;28;20119;-71
2022/09/30 02:02:01;;;;;;;6.72;4.57;;;12.90;99.90;;;;;;1035049;28;20083;-70
2022/09/30 02:02:40;;;;;;;4.68;4.18;;;12.90;99.90;;;;;;1035009;28;20048;-70
2022/09/30 02:03:17;;;;;;;5.35;4.85;;;12.90;99.90;;;;;;1035210;28;20605;-71
2022/09/30 02:03:54;;;;;;;5.72;4.60;;;12.90;99.90;;;;;;1035423;28;20029;-70
2022/09/30 02:04:33;;;;;;;5.03;3.80;;;12.90;99.90;;;;;;1035102;28;20018;-70
2022/09/30 02:05:09;;;;;;;5.85;4.32;;;12.90;99.90;;;;;;1035354;28;20076;-72
2022/09/30 02:06:14;;;;;;;5.00;4.07;;;12.90;99.90;;;;;;1034618;28;20504;-69
2022/09/30 02:06:51;;;;;;;7.88;4.68;;;12.90;99.90;;;;;;1023762;28;20527;-69
2022/09/30 02:07:32;;;;;;;5.47;4.07;;;12.90;99.90;;;;;;1028424;28;20011;-70
2022/09/30 02:08:22;;;;;;;5.22;4.20;;;12.90;99.90;;;;;;1030958;28;20063;-70
2022/09/30 02:08:59;;;;;;;5.65;4.10;;;12.90;99.90;;;;;;1035312;28;20067;-69
2022/09/30 02:09:50;;;;;;;5.82;4.40;;;12.90;99.90;;;;;;1034815;28;20052;-70
2022/09/30 02:10:33;;;;;;;5.03;4.43;;;12.90;99.90;;;;;;1035016;28;20161;-70
2022/09/30 02:11:14;;;;;;;5.00;4.13;;;12.90;99.90;;;;;;1035133;28;20045;-70
2022/09/30 02:11:45;;;;;;;4.88;3.95;;;12.90;99.90;;;;;;1031175;28;20022;-70
2022/09/30 02:12:20;;;;;;;5.50;4.07;;;12.90;99.90;;;;;;1031414;28;20118;-70
2022/09/30 02:13:22;;;;;;;5.20;4.53;;;13.00;99.90;;;;;;1034755;28;20042;-70
2022/09/30 02:14:08;;;;;;;6.28;4.78;;;13.00;99.90;;;;;;1035856;28;20068;-68
2022/09/30 02:14:49;;;;;;;5.05;3.90;;;13.00;99.90;;;;;;1034644;28;20014;-70
2022/09/30 02:15:29;;;;;;;5.95;4.35;;;13.00;99.90;;;;;;1035859;28;20037;-70
2022/09/30 02:16:11;;;;;;;4.60;4.00;;;13.00;99.90;;;;;;1037367;28;20041;-69
2022/09/30 02:16:47;;;;;;;5.20;4.45;;;13.00;99.90;;;;;;1035054;28;20409;-71
2022/09/30 02:17:20;;;;;;;5.05;4.18;;;12.90;99.90;;;;;;1034901;28;20029;-73
2022/09/30 02:18:38;;;;;;;5.75;4.63;;;12.90;99.90;;;;;;1037538;28;20037;-69
2022/09/30 02:19:17;;;;;;;4.85;4.10;;;;;;;;;;1031068;28;20029;-69
2022/09/30 02:20:01;;;;;;;4.43;3.80;;;12.90;99.90;;;;;;1030584;28;20579;-70
2022/09/30 02:20:37;;;;;;;4.30;3.60;;;12.90;99.90;;;;;;1030940;28;20417;-70
2022/09/30 02:21:11;;;;;;;4.78;4.22;;;12.90;99.90;;;;;;1030319;28;20177;-70
2022/09/30 02:21:43;;;;;;;4.40;3.97;;;12.90;99.90;;;;;;1031978;28;20026;-70
2022/09/30 02:22:21;;;;;;;4.10;3.70;;;12.90;99.90;;;;;;1034985;28;20113;-70
2022/09/30 02:23:00;;;;;;;5.35;4.20;;;12.90;99.90;;;;;;1035281;28;20089;-71
2022/09/30 02:23:39;;;;;;;5.38;4.10;;;12.90;99.90;;;;;;1034970;28;20030;-70
2022/09/30 02:24:13;;;;;;;;;;;12.90;99.90;;;;;;1035797;28;20092;-71
2022/09/30 02:24:46;;;;;;;4.63;4.10;;;12.90;99.90;;;;;;1034928;28;19905;-69
2022/09/30 02:25:26;;;;;;;5.47;3.70;;;12.80;99.90;;;;;;1034833;28;20029;-69
2022/09/30 02:26:00;;;;;;;4.18;3.58;;;12.80;99.90;;;;;;1035790;28;20056;-69
2022/09/30 02:26:37;;;;;;;4.85;4.15;;;12.80;99.90;;;;;;1038665;28;20071;-69
2022/09/30 02:27:29;;;;;;;5.88;4.00;;;12.80;99.90;;;;;;1035248;28;20121;-69
2022/09/30 02:28:06;;;;;;;4.78;4.28;;;12.80;99.90;;;;;;1034836;28;20013;-69
2022/09/30 02:28:42;;;;;;;5.07;4.00;;;12.80;99.90;;;;;;1035087;28;20021;-70
2022/09/30 02:29:20;;;;;;;4.72;3.80;;;12.70;99.90;;;;;;1035197;28;20010;-70
2022/09/30 02:29:56;;;;;;;4.75;4.25;;;12.80;99.90;;;;;;1035484;28;20101;-70
2022/09/30 02:30:27;;;;;;;4.20;3.72;;;12.80;99.90;;;;;;1034758;28;20029;-69
2022/09/30 02:31:01;;;;;;;4.53;3.67;;;12.80;99.90;;;;;;1035343;28;20026;-69
2022/09/30 02:31:36;;;;;;;4.68;3.97;;;12.80;99.90;;;;;;1034286;28;20120;-69
2022/09/30 02:32:17;;;;;;;4.65;4.20;;;12.80;99.90;;;;;;1035064;28;20014;-69
2022/09/30 02:32:56;;;;;;;5.38;4.13;;;12.70;99.90;;;;;;1034997;28;20026;-70
2022/09/30 02:33:33;;;;;;;6.97;4.30;;;12.70;99.90;;;;;;1035138;28;20397;-70
2022/09/30 02:34:13;;;;;;;8.20;4.05;;;12.60;99.90;;;;;;1035253;28;20025;-69
2022/09/30 02:34:50;;;;;;;5.63;4.30;;;12.60;99.90;;;;;;1034788;28;20022;-70
2022/09/30 02:35:35;;;;;;;5.10;4.45;;;12.60;99.90;;;;;;1034763;28;20029;-70
2022/09/30 02:36:21;;;;;;;4.97;4.10;;;12.60;99.90;;;;;;1035145;28;20464;-71
2022/09/30 02:37:15;;;;;;;4.32;3.92;;;12.60;99.90;;;;;;1034725;28;20054;-70
2022/09/30 02:37:54;;;;;;;5.55;4.60;;;12.50;99.90;;;;;;1033607;28;20030;-69
2022/09/30 02:38:30;;;;;;;4.32;3.92;;;12.50;99.90;;;;;;1030865;28;20490;-70
2022/09/30 02:39:12;;;;;;;7.05;4.00;;;12.50;99.90;;;;;;1035000;28;20014;-70
2022/09/30 02:40:05;;;;;;;4.30;3.90;;;12.50;99.90;;;;;;1038206;28;20104;-70
2022/09/30 02:41:13;;;;;;;4.05;3.65;;;12.40;99.90;;;;;;1034698;28;20263;-70
2022/09/30 02:41:50;;;;;;;4.88;4.10;;;12.40;99.90;;;;;;1032570;28;20053;-70
2022/09/30 02:42:29;;;;;;;4.72;4.20;;;12.40;99.90;;;;;;1035203;28;20030;-70
2022/09/30 02:43:02;;;;;;;4.28;3.63;;;12.40;99.90;;;;;;1038941;28;20468;-70
2022/09/30 02:43:33;;;;;;;4.68;3.97;;;12.40;99.90;;;;;;1038811;28;20032;-70
2022/09/30 02:44:04;;;;;;;5.78;3.55;;;12.40;99.90;;;;;;1034708;28;20057;-70
2022/09/30 02:44:36;;;;;;;5.20;4.50;;;12.40;99.90;;;;;;1034749;28;20026;-70
2022/09/30 02:45:15;;;;;;;4.53;3.95;;;12.40;99.90;;;;;;1034784;28;20026;-71
2022/09/30 02:45:52;;;;;;;4.28;3.80;;;12.40;99.90;;;;;;1036236;28;20735;-70
2022/09/30 02:46:40;;;;;;;4.68;3.83;;;12.40;99.90;;;;;;1038781;28;20068;-71
2022/09/30 02:47:26;;;;;;;4.25;3.63;;;12.40;99.90;;;;;;1034733;28;20224;-70
2022/09/30 02:48:28;;;;;;;4.47;3.58;;;12.50;99.90;;;;;;1034968;28;20053;-70
2022/09/30 02:49:19;;;;;;;4.95;3.60;;;12.50;99.90;;;;;;1032968;28;20510;-71
2022/09/30 02:49:58;;;;;;;4.78;4.28;;;12.50;99.90;;;;;;1030900;28;20129;-70
2022/09/30 02:50:43;;;;;;;5.28;3.53;;;12.50;99.90;;;;;;1030909;28;20045;-70
2022/09/30 02:51:53;;;;;;;5.15;3.90;;;12.50;99.90;;;;;;1034942;28;20036;-70
2022/09/30 02:52:32;;;;;;;4.57;3.92;;;12.60;99.90;;;;;;1034599;28;20044;-71
2022/09/30 02:53:22;;;;;;;4.05;3.60;;;12.60;99.90;;;;;;1034971;28;20065;-70
2022/09/30 02:54:18;;;;;;;3.70;3.35;;;12.60;99.90;;;;;;1034736;28;20026;-71
2022/09/30 02:55:25;;;;;;;4.55;3.78;;;12.60;99.90;;;;;;1034678;28;20025;-71
2022/09/30 02:56:01;;;;;;;4.97;3.53;;;12.60;99.90;;;;;;1035061;28;20088;-71
2022/09/30 02:56:53;;;;;;;4.18;3.55;;;12.60;99.90;;;;;;1035882;28;20052;-71
2022/09/30 02:57:40;;;;;;;3.95;3.55;;;12.60;99.90;;;;;;1038985;28;20026;-70
2022/09/30 02:58:14;;;;;;;4.72;3.63;;;12.60;99.90;;;;;;1038807;28;20045;-71
2022/09/30 02:58:46;;;;;;;4.15;3.70;;;12.60;99.90;;;;;;1034675;28;20109;-70
2022/09/30 02:59:17;;;;;;;3.85;3.45;;;12.60;99.90;;;;;;1034714;28;20022;-71
2022/09/30 02:59:51;;;;;;;3.92;3.53;;;12.60;99.90;;;;;;1035005;28;20078;-70
2022/09/30 03:00:23;;;;;;;4.05;3.65;;;12.60;99.90;;;;;;1034711;28;20109;-71
2022/09/30 03:00:53;;;;;;;4.95;4.07;;;12.60;99.90;;;;;;1035725;28;20151;-70
2022/09/30 03:01:24;;;;;;;5.07;3.67;;;12.60;99.90;;;;;;1034594;28;20022;-70
2022/09/30 03:01:55;;;;;;;4.00;3.60;;;12.60;99.90;;;;;;1035012;28;20272;-70
2022/09/30 03:02:25;;;;;;;3.67;3.07;;;12.60;99.90;;;;;;1035014;28;20881;-70
2022/09/30 03:03:04;;;;;;;4.27;3.50;;;12.60;99.90;;;;;;1034674;28;20468;-70
2022/09/30 03:03:41;;;;;;;4.10;3.70;;;12.60;99.90;;;;;;1035289;28;20170;-70
2022/09/30 03:04:15;;;;;;;5.50;3.70;;;12.60;99.90;;;;;;1034979;28;20022;-70
2022/09/30 03:04:48;;;;;;;4.35;3.90;;;12.60;99.90;;;;;;1035025;28;20029;-70
2022/09/30 03:05:18;;;;;;;4.30;3.63;;;12.60;99.90;;;;;;1034996;28;20018;-70
2022/09/30 03:05:50;;;;;;;3.80;3.40;;;12.50;99.90;;;;;;1035222;28;20049;-70
2022/09/30 03:06:21;;;;;;;4.18;3.78;;;12.50;99.90;;;;;;1034870;28;20021;-70
2022/09/30 03:06:53;;;;;;;4.25;3.85;;;12.50;99.90;;;;;;1034853;28;20040;-70
2022/09/30 03:07:24;;;;;;;4.38;3.97;;;12.50;99.90;;;;;;1034716;28;20022;-71
2022/09/30 03:07:55;;;;;;;4.33;3.63;;;12.50;99.90;;;;;;1035152;28;20120;-70
2022/09/30 03:08:26;;;;;;;4.25;3.70;;;12.50;99.90;;;;;;1038593;28;20730;-71
2022/09/30 03:08:57;;;;;;;4.07;3.57;;;12.50;99.90;;;;;;1034834;28;20092;-70
2022/09/30 03:09:28;;;;;;;4.43;3.63;;;12.50;99.90;;;;;;1034047;28;20088;-71
2022/09/30 03:09:58;;;;;;;4.13;3.67;;;12.50;99.90;;;;;;1034754;28;20025;-71
2022/09/30 03:10:30;;;;;;;4.57;3.80;;;12.50;99.90;;;;;;1034847;28;20125;-70
2022/09/30 03:11:02;;;;;;;4.35;3.67;;;12.50;99.90;;;;;;1034954;28;20030;-70
2022/09/30 03:11:33;;;;;;;5.93;3.80;;;12.50;99.90;;;;;;1038379;28;20017;-71
2022/09/30 03:12:24;;;;;;;3.72;3.33;;;12.50;99.90;;;;;;1036247;28;20523;-70
2022/09/30 03:13:07;;;;;;;5.15;3.97;;;12.50;99.90;;;;;;1039050;28;20026;-70
2022/09/30 03:14:05;;;;;;;5.53;3.63;;;12.50;99.90;;;;;;1038135;28;20026;-71
2022/09/30 03:14:51;;;;;;;4.88;4.18;;;12.50;99.90;;;;;;1031010;28;20033;-71
2022/09/30 03:15:41;;;;;;;3.97;3.58;;;12.50;99.90;;;;;;1035235;28;20065;-70
2022/09/30 03:16:46;;;;;;;4.25;3.50;;;12.40;99.90;;;;;;1035163;28;20022;-70
2022/09/30 03:17:54;;;;;;;4.55;3.53;;;12.40;99.90;;;;;;1035084;28;20017;-71
2022/09/30 03:18:46;;;;;;;4.70;3.53;;;12.40;99.90;;;;;;1035077;28;20057;-71
2022/09/30 03:19:31;;;;;;;4.28;3.55;;;12.40;99.90;;;;;;1039245;28;20121;-71
2022/09/30 03:20:22;;;;;;;5.22;3.45;;;12.40;99.90;;;;;;1038698;28;20075;-70
2022/09/30 03:20:59;;;;;;;5.75;4.07;;;12.40;99.90;;;;;;1038629;28;20465;-70
2022/09/30 03:21:59;;;;;;;3.53;3.22;;;12.40;99.90;;;;;;1034743;28;20488;-70
2022/09/30 03:22:46;;;;;;;3.75;3.45;;;12.40;99.90;;;;;;1035568;28;20025;-71